Time;durP1;ratioP1;P1;durP2;ratioP2;P2;SDS_P1;SDS_P2;PMS_P1;PMS_P2;Temp;Humidity;BMP_temperature;BMP_pressure;BME280_temperature;BME280_humidity;BME280_pressure;Samples;Min_cycle;Max_cycle;Signal;HPM_P1;HPM_P2
2021/10/29 00:02:18;;;;;;;47.40;28.70;;;;;;;3.70;69.85;101194.53;5024624;28;20045;-55
2021/10/29 00:04:43;;;;;;;51.90;30.10;;;;;;;3.75;69.65;101197.09;5027121;28;20033;-56
2021/10/29 00:07:09;;;;;;;50.60;28.98;;;;;;;3.79;69.51;101200.84;5029599;28;20048;-56
2021/10/29 00:09:35;;;;;;;51.55;29.88;;;;;;;3.81;69.30;101195.75;5029278;28;20109;-56
2021/10/29 00:12:01;;;;;;;51.35;29.60;;;;;;;3.81;69.66;101194.94;5028854;28;20085;-56
2021/10/29 00:14:27;;;;;;;49.40;28.30;;;;;;;3.81;69.16;101198.53;5026552;28;20026;-56
2021/10/29 00:16:53;;;;;;;49.50;30.05;;;;;;;3.79;69.74;101198.06;5029449;28;20056;-57
2021/10/29 00:19:19;;;;;;;56.38;31.60;;;;;;;3.76;69.38;101193.16;5026798;28;20041;-56
2021/10/29 00:21:44;;;;;;;53.50;30.23;;;;;;;3.72;69.32;101197.78;5027845;28;20029;-57
2021/10/29 00:24:10;;;;;;;55.67;30.25;;;;;;;3.69;69.32;101204.03;5030297;28;20041;-53
2021/10/29 00:26:35;;;;;;;53.33;30.80;;;;;;;3.67;69.42;101201.59;5027922;28;20021;-57
2021/10/29 00:29:00;;;;;;;50.60;29.70;;;;;;;3.66;69.67;101188.84;5026316;28;20029;-55
2021/10/29 00:31:26;;;;;;;55.95;29.77;;;;;;;3.67;69.78;101193.25;5024382;28;20436;-53
2021/10/29 00:33:51;;;;;;;51.42;30.55;;;;;;;3.68;69.66;101199.63;5030724;28;20018;-57
2021/10/29 00:36:17;;;;;;;53.83;32.05;;;;;;;3.66;69.75;101188.84;5028347;28;20025;-56
2021/10/29 00:38:42;;;;;;;54.13;29.85;;;;;;;3.67;70.13;101187.69;5026836;28;20038;-56
2021/10/29 00:41:08;;;;;;;48.55;29.38;;;;;;;3.67;69.90;101192.44;5027248;28;20060;-54
2021/10/29 00:43:33;;;;;;;50.88;29.75;;;;;;;3.67;70.63;101179.34;5034412;28;20025;-57
2021/10/29 00:45:58;;;;;;;49.22;27.92;;;;;;;3.68;70.60;101180.16;5028233;28;20044;-57
2021/10/29 00:48:24;;;;;;;50.58;29.75;;;;;;;3.69;70.28;101179.00;5034325;28;20025;-57
2021/10/29 00:50:49;;;;;;;49.25;28.33;;;;;;;3.71;70.59;101182.25;5027626;28;20099;-57
2021/10/29 00:53:15;;;;;;;44.05;28.00;;;;;;;3.73;70.75;101177.97;5029014;28;20076;-55
2021/10/29 00:55:41;;;;;;;43.67;26.38;;;;;;;3.75;70.69;101174.88;5035305;28;20029;-53
2021/10/29 00:58:06;;;;;;;48.47;28.50;;;;;;;3.77;70.67;101169.78;5035471;28;20104;-53
2021/10/29 01:00:32;;;;;;;49.90;28.10;;;;;;;3.75;70.45;101171.25;5020497;28;20101;-55
2021/10/29 01:02:58;;;;;;;47.53;27.58;;;;;;;3.73;70.42;101172.41;5035248;28;20057;-57
2021/10/29 01:05:23;;;;;;;46.60;29.42;;;;;;;3.73;69.95;101174.38;5035127;28;20067;-55
2021/10/29 01:07:50;;;;;;;44.65;28.20;;;;;;;3.71;70.18;101174.72;5034832;28;20096;-57
2021/10/29 01:10:15;;;;;;;48.30;28.42;;;;;;;3.71;70.16;101173.91;5014483;28;20121;-55
2021/10/29 01:12:41;;;;;;;44.28;28.20;;;;;;;3.70;70.34;101172.28;5018250;28;20092;-57
2021/10/29 01:15:07;;;;;;;45.08;28.33;;;;;;;3.69;70.45;101167.88;5035115;28;20056;-57
2021/10/29 01:17:33;;;;;;;47.88;28.02;;;;;;;3.65;70.58;101170.53;5034689;28;20436;-55
2021/10/29 01:19:59;;;;;;;48.55;28.70;;;;;;;3.63;70.87;101166.44;5030184;28;20029;-56
2021/10/29 01:22:25;;;;;;;49.08;29.92;;;;;;;3.62;71.25;101168.41;5028348;28;20025;-57
2021/10/29 01:24:52;;;;;;;53.97;30.15;;;;;;;3.60;70.90;101167.94;5034691;28;20052;-56
2021/10/29 01:27:18;;;;;;;49.13;29.25;;;;;;;3.60;70.97;101156.00;5035161;28;20037;-51
2021/10/29 01:29:45;;;;;;;54.90;30.23;;;;;;;3.62;71.14;101170.38;5034777;28;20021;-57
2021/10/29 01:32:11;;;;;;;48.95;29.92;;;;;;;3.61;71.38;101158.44;5034912;28;20121;-56
2021/10/29 01:34:38;;;;;;;49.65;29.33;;;;;;;3.58;71.20;101156.34;5035187;28;20395;-57
2021/10/29 01:37:07;;;;;;;48.63;28.63;;;;;;;3.61;71.33;101164.00;5038573;28;20060;-54
2021/10/29 01:39:34;;;;;;;53.10;30.40;;;;;;;3.61;71.12;101163.19;5038272;28;20060;-57
2021/10/29 01:42:00;;;;;;;48.20;29.48;;;;;;;3.59;71.26;101154.38;5038691;28;20508;-57
2021/10/29 01:44:25;;;;;;;51.47;29.42;;;;;;;3.57;71.62;101148.34;5038655;28;20036;-52
2021/10/29 01:46:50;;;;;;;47.47;28.35;;;;;;;3.56;71.45;101153.09;5038151;28;20025;-55
2021/10/29 01:49:17;;;;;;;47.55;28.95;;;;;;;3.55;71.51;101150.63;5029593;28;20080;-52
2021/10/29 01:51:42;;;;;;;51.00;28.85;;;;;;;3.52;71.84;101149.34;5038093;28;20057;-51
2021/10/29 01:54:08;;;;;;;52.30;29.77;;;;;;;3.51;71.59;101149.66;5038113;28;20025;-54
2021/10/29 01:56:33;;;;;;;50.35;29.30;;;;;;;3.48;71.90;101148.38;5038317;28;20105;-56
2021/10/29 01:58:59;;;;;;;51.65;30.40;;;;;;;3.44;71.35;101146.63;5038197;28;20412;-53
2021/10/29 02:01:25;;;;;;;47.97;29.60;;;;;;;3.38;71.62;101143.22;5038368;28;20024;-56
2021/10/29 02:03:51;;;;;;;50.70;30.25;;;;;;;3.33;71.49;101147.00;5037863;28;20028;-56
2021/10/29 02:06:17;;;;;;;50.55;28.88;;;;;;;3.32;71.73;101144.56;5037936;28;20018;-55
2021/10/29 02:08:43;;;;;;;46.08;29.35;;;;;;;3.30;71.53;101147.69;5038219;28;20029;-55
2021/10/29 02:11:08;;;;;;;47.72;29.95;;;;;;;3.29;71.78;101140.50;5037868;28;20105;-56
2021/10/29 02:13:34;;;;;;;50.47;30.35;;;;;;;3.25;71.76;101141.47;5037929;28;20083;-55
2021/10/29 02:15:59;;;;;;;60.13;29.40;;;;;;;3.21;71.87;101144.13;5037879;28;20289;-56
2021/10/29 02:18:24;;;;;;;50.55;30.02;;;;;;;3.19;71.69;101140.06;5037553;28;20105;-55
2021/10/29 02:20:50;;;;;;;48.65;29.92;;;;;;;3.18;71.52;101138.41;5038097;28;20045;-56
2021/10/29 02:23:15;;;;;;;48.92;29.58;;;;;;;3.14;71.52;101141.06;5037650;28;20025;-57
2021/10/29 02:25:46;;;;;;;50.17;31.17;;;;;;;3.12;71.55;101143.34;5037616;28;20483;-57
2021/10/29 02:28:12;;;;;;;47.47;29.15;;;;;;;3.09;71.80;101146.81;5037825;28;20061;-55
2021/10/29 02:30:38;;;;;;;44.88;29.55;;;;;;;3.04;71.76;101138.66;5037463;28;20112;-54
2021/10/29 02:33:04;;;;;;;54.38;32.17;;;;;;;3.01;71.66;101153.19;5037706;28;20096;-57
2021/10/29 02:35:29;;;;;;;50.60;29.67;;;;;;;2.95;71.51;101149.78;5037759;28;20029;-56
2021/10/29 02:37:54;;;;;;;56.75;31.17;;;;;;;2.88;71.59;101149.50;5037509;28;20021;-57
2021/10/29 02:40:20;;;;;;;58.50;30.63;;;;;;;2.82;71.65;101139.72;5037644;28;20108;-57
2021/10/29 02:42:45;;;;;;;61.97;32.25;;;;;;;2.75;71.69;101143.03;5037348;28;20115;-56
2021/10/29 02:45:11;;;;;;;50.47;27.75;;;;;;;2.71;71.84;101142.03;5037004;28;20022;-57
2021/10/29 02:47:36;;;;;;;52.13;30.10;;;;;;;2.64;71.62;101144.50;5037146;28;20313;-57
2021/10/29 02:50:02;;;;;;;57.45;31.05;;;;;;;2.61;71.99;101142.41;5037153;28;20112;-54
2021/10/29 02:52:27;;;;;;;47.35;27.58;;;;;;;2.61;72.00;101153.50;5037548;28;20041;-56
2021/10/29 02:54:53;;;;;;;55.67;29.92;;;;;;;2.63;72.03;101145.66;5037164;28;20067;-56
2021/10/29 02:57:18;;;;;;;50.85;29.48;;;;;;;2.63;71.86;101144.84;5036848;28;20025;-57
2021/10/29 02:59:43;;;;;;;56.50;30.08;;;;;;;2.61;72.10;101150.72;5037258;28;20104;-58
2021/10/29 03:02:09;;;;;;;50.72;29.20;;;;;;;2.56;71.80;101142.59;5037121;28;20372;-57
2021/10/29 03:04:34;;;;;;;53.53;31.15;;;;;;;2.53;71.73;101140.47;5037006;28;20051;-58
2021/10/29 03:07:00;;;;;;;55.50;30.10;;;;;;;2.49;71.84;101133.97;5036762;28;20025;-57
2021/10/29 03:09:25;;;;;;;54.35;30.75;;;;;;;2.51;72.37;101137.22;5037084;28;20321;-56
2021/10/29 03:11:50;;;;;;;57.10;33.50;;;;;;;2.58;73.05;101133.94;5037155;28;20087;-54
2021/10/29 03:14:16;;;;;;;60.72;35.47;;;;;;;2.63;73.10;101130.97;5036557;28;20452;-55
2021/10/29 03:16:41;;;;;;;56.10;32.97;;;;;;;2.68;73.20;101128.00;5036531;28;20022;-57
2021/10/29 03:19:06;;;;;;;59.08;35.33;;;;;;;2.70;73.49;101128.50;5036819;28;20102;-57
2021/10/29 03:21:32;;;;;;;62.97;35.05;;;;;;;2.72;73.09;101143.66;5036570;28;20017;-54
2021/10/29 03:23:57;;;;;;;57.42;34.03;;;;;;;2.74;73.14;101135.84;5036614;28;20049;-58
2021/10/29 03:26:22;;;;;;;63.10;35.45;;;;;;;2.75;73.42;101131.91;5031356;28;20037;-57
2021/10/29 03:28:48;;;;;;;56.70;34.88;;;;;;;2.76;73.25;101133.56;5036465;28;20500;-53
2021/10/29 03:31:13;;;;;;;58.70;35.10;;;;;;;2.80;73.33;101130.91;5036507;28;20025;-56
2021/10/29 03:33:40;;;;;;;58.30;35.63;;;;;;;2.80;73.41;101133.69;5036409;28;20368;-54
2021/10/29 03:36:08;;;;;;;58.85;34.58;;;;;;;2.81;73.88;101134.50;5036360;28;20032;-58
2021/10/29 03:38:52;;;;;;;64.47;36.47;;;;;;;2.82;73.77;101136.13;5036179;28;20025;-56
2021/10/29 03:41:20;;;;;;;58.90;36.70;;;;;;;2.79;73.62;101135.66;5036391;28;20321;-57
2021/10/29 03:43:55;;;;;;;59.20;35.17;;;;;;;2.83;74.19;101137.78;5034433;28;20073;-56
2021/10/29 03:46:23;;;;;;;64.40;36.63;;;;;;;2.83;73.99;101137.78;5036189;28;20037;-57
2021/10/29 03:51:23;;;;;;;62.90;36.25;;;;;;;2.80;73.60;101133.69;5036239;28;20132;-54
2021/10/29 03:53:55;;;;;;;56.65;34.25;;;;;;;2.80;74.03;101139.25;5036220;28;20025;-57
2021/10/29 03:56:24;;;;;;;59.08;36.58;;;;;;;2.86;74.24;101128.78;5036233;28;20116;-57
2021/10/29 03:58:51;;;;;;;63.58;36.28;;;;;;;2.91;74.37;101128.59;5035040;28;20419;-55
2021/10/29 04:01:17;;;;;;;62.88;37.00;;;;;;;2.92;74.23;101133.78;5035734;28;20037;-57
2021/10/29 04:03:43;;;;;;;67.78;38.22;;;;;;;2.92;74.77;101144.91;5035902;28;20025;-57
2021/10/29 04:06:09;;;;;;;67.63;38.28;;;;;;;2.88;74.50;101134.81;5036008;28;20021;-54
2021/10/29 04:08:34;;;;;;;61.67;38.15;;;;;;;2.85;74.57;101129.91;5036235;28;20425;-57
2021/10/29 04:11:00;;;;;;;67.38;38.58;;;;;;;2.84;74.31;101128.28;5035509;28;20033;-56
2021/10/29 04:13:33;;;;;;;64.88;37.63;;;;;;;2.86;75.73;101120.44;5035663;28;20388;-55
2021/10/29 04:16:00;;;;;;;68.53;39.40;;;;;;;2.96;76.30;101122.84;5035284;28;20021;-54
2021/10/29 04:18:26;;;;;;;67.03;39.47;;;;;;;3.00;75.97;101118.22;5035573;28;20067;-54
2021/10/29 04:20:52;;;;;;;67.20;38.75;;;;;;;3.00;75.85;101115.47;5035858;28;20100;-56
2021/10/29 04:23:18;;;;;;;67.93;39.63;;;;;;;2.97;75.74;101124.47;5035864;28;20109;-58
2021/10/29 04:25:43;;;;;;;72.55;40.53;;;;;;;2.94;75.74;101119.56;5035558;28;20021;-57
2021/10/29 04:28:11;;;;;;;70.22;42.33;;;;;;;2.93;75.77;101116.00;5035202;28;20485;-57
2021/10/29 04:30:37;;;;;;;70.00;40.30;;;;;;;2.94;76.35;101117.63;5035919;28;20021;-55
2021/10/29 04:33:06;;;;;;;66.35;40.55;;;;;;;2.96;76.44;101126.44;5035277;28;20049;-57
2021/10/29 04:35:34;;;;;;;70.72;41.05;;;;;;;2.99;77.07;101122.16;5035487;28;20017;-57
2021/10/29 04:38:00;;;;;;;71.43;42.30;;;;;;;2.99;76.76;101130.50;5035414;28;20117;-53
2021/10/29 04:40:25;;;;;;;64.03;40.97;;;;;;;2.97;76.07;101121.69;5035148;28;20104;-53
2021/10/29 04:42:50;;;;;;;75.95;43.88;;;;;;;2.94;76.28;101123.16;5035296;28;20037;-55
2021/10/29 04:45:16;;;;;;;76.72;45.35;;;;;;;2.90;76.23;101115.84;5035208;28;20022;-58
2021/10/29 04:47:41;;;;;;;80.20;46.05;;;;;;;2.87;75.84;101122.06;5035508;28;20018;-57
2021/10/29 04:50:07;;;;;;;83.07;46.00;;;;;;;2.88;75.96;101118.16;5034728;28;20675;-57
2021/10/29 04:52:33;;;;;;;75.18;45.55;;;;;;;2.94;76.79;101119.56;5035595;28;20032;-56
2021/10/29 04:54:58;;;;;;;72.07;44.13;;;;;;;2.99;77.29;101113.84;5035302;28;20057;-56
2021/10/29 04:57:24;;;;;;;74.45;43.92;;;;;;;3.05;77.44;101118.88;5034583;28;20402;-56
2021/10/29 04:59:49;;;;;;;79.80;46.22;;;;;;;3.10;77.46;101115.09;5035478;28;20018;-55
2021/10/29 05:02:14;;;;;;;74.72;44.65;;;;;;;3.17;77.58;101120.13;5035273;28;20026;-55
2021/10/29 05:04:40;;;;;;;88.57;49.33;;;;;;;3.23;77.57;101116.00;5035264;28;20109;-58
2021/10/29 05:07:06;;;;;;;87.35;50.38;;;;;;;3.27;78.18;101115.00;5035466;28;20315;-57
2021/10/29 05:09:31;;;;;;;86.53;50.33;;;;;;;3.34;77.95;101111.69;5037126;28;20029;-57
2021/10/29 05:11:56;;;;;;;85.60;49.70;;;;;;;3.38;77.50;101115.44;5039153;28;20045;-57
2021/10/29 05:14:22;;;;;;;83.43;48.22;;;;;;;3.40;77.30;101119.50;5038910;28;20037;-58
2021/10/29 05:16:49;;;;;;;84.57;49.50;;;;;;;3.45;77.23;101124.03;5039379;28;20104;-55
2021/10/29 05:19:15;;;;;;;85.50;50.13;;;;;;;3.49;77.38;101122.22;5039257;28;20032;-55
2021/10/29 05:21:40;;;;;;;98.70;53.63;;;;;;;3.51;77.17;101122.69;5038756;28;20021;-58
2021/10/29 05:24:06;;;;;;;86.85;52.78;;;;;;;3.53;76.80;101122.34;5039175;28;20033;-56
2021/10/29 05:26:31;;;;;;;90.13;55.42;;;;;;;3.52;76.66;101120.72;5038634;28;20021;-55
2021/10/29 05:28:56;;;;;;;105.72;62.17;;;;;;;3.53;76.34;101122.34;5038742;28;20029;-56
2021/10/29 05:31:22;;;;;;;102.50;59.85;;;;;;;3.53;76.27;101128.72;5038648;28;20120;-58
2021/10/29 05:33:47;;;;;;;87.55;51.92;;;;;;;3.56;76.36;101132.78;5038958;28;20121;-57
2021/10/29 05:36:13;;;;;;;81.30;49.08;;;;;;;3.59;76.45;101129.38;5038505;28;20037;-56
2021/10/29 05:38:38;;;;;;;82.63;48.20;;;;;;;3.56;76.58;101133.63;5034041;28;20022;-55
2021/10/29 05:41:03;;;;;;;88.15;51.42;;;;;;;3.55;76.80;101118.06;5011727;28;20033;-53
2021/10/29 05:43:29;;;;;;;82.65;49.10;;;;;;;3.60;76.39;101128.22;5037590;28;20037;-57
2021/10/29 05:45:54;;;;;;;79.10;49.38;;;;;;;3.61;76.29;101130.66;5026281;28;20033;-57
2021/10/29 05:48:20;;;;;;;82.57;49.50;;;;;;;3.57;76.29;101129.69;5024147;28;20052;-57
2021/10/29 05:50:49;;;;;;;85.50;50.75;;;;;;;3.58;76.50;101130.50;5026784;28;20041;-53
2021/10/29 05:53:23;;;;;;;102.32;55.88;;;;;;;3.60;76.70;101128.22;5026418;28;20029;-53
2021/10/29 05:55:48;;;;;;;116.78;60.90;;;;;;;3.61;76.56;101132.63;5031386;28;20172;-54
2021/10/29 05:58:14;;;;;;;120.32;61.97;;;;;;;3.64;76.63;101129.16;5025797;28;20109;-57
2021/10/29 06:00:39;;;;;;;134.45;67.45;;;;;;;3.73;76.80;101125.16;5028068;28;20037;-57
2021/10/29 06:03:05;;;;;;;119.43;62.90;;;;;;;3.83;76.45;101135.03;5027452;28;20364;-55
2021/10/29 06:05:32;;;;;;;112.05;59.17;;;;;;;3.90;75.98;101132.56;5027456;28;20480;-57
2021/10/29 06:07:58;;;;;;;115.35;59.10;;;;;;;3.93;76.39;101143.00;5027640;28;20017;-55
2021/10/29 06:10:23;;;;;;;116.47;61.60;;;;;;;3.98;75.91;101139.19;5025705;28;20040;-57
2021/10/29 06:12:49;;;;;;;112.72;60.40;;;;;;;4.05;75.97;101139.44;5040166;28;20037;-54
2021/10/29 06:15:16;;;;;;;99.35;53.17;;;;;;;4.17;75.86;101141.50;5026942;28;20018;-56
2021/10/29 06:17:42;;;;;;;86.63;49.63;;;;;;;4.32;75.73;101149.19;5026201;28;20033;-57
2021/10/29 06:20:09;;;;;;;80.32;48.58;;;;;;;4.48;75.03;101152.97;5024845;28;20017;-57
2021/10/29 06:22:38;;;;;;;85.50;49.72;;;;;;;4.65;74.27;101147.19;5025766;28;20022;-58
2021/10/29 06:25:09;;;;;;;81.13;46.97;;;;;;;4.84;74.00;101154.22;5031307;28;20032;-57
2021/10/29 06:30:00;;;;;;;85.63;48.25;;;;;;;5.24;72.94;101162.75;5032915;28;20132;-56
2021/10/29 06:32:26;;;;;;;80.47;44.95;;;;;;;5.44;72.08;101160.97;5025659;28;20109;-57
2021/10/29 06:34:51;;;;;;;80.85;46.88;;;;;;;5.62;71.36;101156.78;5029883;28;20025;-57
2021/10/29 06:37:17;;;;;;;78.55;45.92;;;;;;;5.83;71.45;101156.66;5025566;28;20022;-57
2021/10/29 06:39:48;;;;;;;80.65;45.13;;;;;;;6.04;70.01;101148.16;5031193;28;20018;-57
2021/10/29 06:42:25;;;;;;;84.65;47.60;;;;;;;6.27;69.16;101152.00;5026011;28;20049;-56
2021/10/29 06:45:05;;;;;;;76.80;45.15;;;;;;;6.48;68.28;101155.41;5021128;28;20329;-52
2021/10/29 06:47:36;;;;;;;77.65;44.13;;;;;;;6.64;68.01;101151.84;5028774;28;20174;-57
2021/10/29 07:00:50;;;;;;;68.82;43.03;;;;;;;7.65;65.02;101149.19;5037311;28;20397;-56
2021/10/29 07:03:43;;;;;;;71.53;42.63;;;;;;;7.90;64.26;101162.94;5036773;28;20476;-56
2021/10/29 07:12:19;;;;;;;67.43;41.38;;;;;;;8.57;62.41;101166.41;5023193;28;20075;-55
2021/10/29 07:41:51;;;;;;;59.65;37.60;;;;;;;10.15;58.97;101152.56;5025333;28;20075;-58
2021/10/29 07:44:26;;;;;;;64.15;39.03;;;;;;;10.26;59.09;101157.53;5020910;28;20104;-57
2021/10/29 07:46:52;;;;;;;59.10;37.38;;;;;;;10.34;59.00;101159.22;5022066;28;20117;-57
2021/10/29 07:49:17;;;;;;;66.70;38.25;;;;;;;10.38;59.31;101155.25;5034144;28;20116;-57
2021/10/29 07:51:43;;;;;;;59.30;37.65;;;;;;;10.45;58.48;101160.19;5028301;28;20053;-51
2021/10/29 07:54:08;;;;;;;64.55;38.05;;;;;;;10.56;59.37;101152.69;5031171;28;20026;-53
2021/10/29 07:56:34;;;;;;;58.70;36.80;;;;;;;10.69;58.97;101159.66;5022651;28;20405;-54
2021/10/29 07:59:00;;;;;;;55.88;36.10;;;;;;;10.80;58.58;101165.41;5033232;28;20021;-51
2021/10/29 08:01:26;;;;;;;61.25;36.40;;;;;;;10.91;58.35;101157.88;5034482;28;20037;-51
2021/10/29 08:03:51;;;;;;;51.03;34.33;;;;;;;10.97;57.97;101155.53;5028158;28;20033;-56
2021/10/29 08:06:17;;;;;;;56.92;36.08;;;;;;;11.03;58.04;101157.59;5033724;28;20029;-55
2021/10/29 08:08:44;;;;;;;51.47;32.15;;;;;;;11.11;58.83;101162.09;5025989;28;20368;-51
2021/10/29 08:11:10;;;;;;;52.75;34.35;;;;;;;11.25;58.95;101155.78;5032233;28;20033;-55
2021/10/29 08:13:35;;;;;;;52.40;33.08;;;;;;;11.38;58.98;101153.47;5033877;28;20041;-57
2021/10/29 08:16:04;;;;;;;59.05;33.47;;;;;;;11.51;57.16;101154.78;5031230;28;20029;-56
2021/10/29 08:18:30;;;;;;;51.03;33.38;;;;;;;11.60;57.52;101158.06;5029521;28;20034;-58
2021/10/29 08:20:56;;;;;;;57.22;35.30;;;;;;;11.71;57.96;101153.31;5027557;28;20329;-57
2021/10/29 08:23:21;;;;;;;53.20;32.20;;;;;;;11.81;56.62;101151.81;5025365;28;20052;-54
2021/10/29 08:25:47;;;;;;;45.65;31.13;;;;;;;11.87;56.45;101147.41;5023490;28;20108;-55
2021/10/29 08:28:13;;;;;;;52.42;31.17;;;;;;;11.95;57.04;101146.25;5025165;28;20030;-58
2021/10/29 08:30:38;;;;;;;54.78;31.52;;;;;;;12.05;56.64;101155.94;5032698;28;20060;-57
2021/10/29 08:33:03;;;;;;;52.38;30.83;;;;;;;12.15;56.33;101143.94;5027828;28;20469;-57
2021/10/29 08:35:29;;;;;;;46.78;30.30;;;;;;;12.29;56.02;101141.19;5019318;28;20350;-57
2021/10/29 08:37:54;;;;;;;56.22;32.10;;;;;;;12.43;56.30;101140.44;5029688;28;20295;-58
2021/10/29 08:40:21;;;;;;;48.40;30.60;;;;;;;12.62;56.58;101139.31;5032152;28;20156;-58
2021/10/29 08:42:48;;;;;;;50.90;31.45;;;;;;;12.82;55.80;101134.09;5026654;28;20112;-58
2021/10/29 08:45:13;;;;;;;37.67;26.13;;;;;;;13.02;54.81;101135.34;5029839;28;20470;-53
2021/10/29 08:47:43;;;;;;;65.28;35.97;;;;;;;13.14;55.15;101132.09;5023009;28;20118;-54
2021/10/29 08:50:12;;;;;;;43.72;29.10;;;;;;;13.34;54.33;101137.41;5024317;28;20088;-56
2021/10/29 08:52:39;;;;;;;39.50;24.83;;;;;;;13.48;53.56;101141.03;5033204;28;20432;-57
2021/10/29 08:55:08;;;;;;;52.88;32.33;;;;;;;13.63;53.84;101135.34;5034194;28;20030;-58
2021/10/29 08:57:34;;;;;;;42.30;27.95;;;;;;;13.80;53.12;101146.63;5031901;28;20026;-53
2021/10/29 09:00:01;;;;;;;36.20;23.63;;;;;;;13.92;52.59;101148.22;5028243;28;20097;-56
2021/10/29 09:02:30;;;;;;;33.38;21.45;;;;;;;14.05;52.18;101140.13;5032140;28;20432;-57
2021/10/29 09:05:16;;;;;;;38.00;22.00;;;;;;;14.16;52.33;101136.03;5034364;28;20100;-58
2021/10/29 09:07:59;;;;;;;34.85;22.15;;;;;;;14.26;50.88;101145.69;5030937;28;20021;-53
2021/10/29 09:32:54;;;;;;;33.13;20.40;;;;;;;14.78;49.78;101126.84;5030274;28;20448;-52
2021/10/29 09:35:23;;;;;;;29.73;18.58;;;;;;;14.85;49.15;101134.50;5027820;28;20030;-59
2021/10/29 09:38:10;;;;;;;28.50;18.60;;;;;;;14.82;49.06;101127.66;5030438;28;20029;-58
2021/10/29 09:40:39;;;;;;;30.15;18.20;;;;;;;14.83;50.28;101128.47;5021734;28;20087;-59
2021/10/29 09:43:18;;;;;;;28.10;17.77;;;;;;;14.85;50.12;101128.84;5028970;28;20022;-59
2021/10/29 09:45:51;;;;;;;27.55;18.00;;;;;;;14.92;49.83;101133.66;5029817;28;20349;-59
2021/10/29 09:48:24;;;;;;;25.23;16.65;;;;;;;14.97;49.07;101122.69;5021964;28;20032;-58
2021/10/29 09:50:57;;;;;;;28.08;17.15;;;;;;;15.03;48.77;101121.03;5021806;28;20054;-58
2021/10/29 09:56:44;;;;;;;27.30;17.55;;;;;;;15.14;48.34;101127.44;5024696;28;20032;-58
2021/10/29 09:59:00;;;;;;;25.65;16.10;;;;;;;15.19;48.45;101129.00;5035757;28;20334;-54
2021/10/29 10:01:33;;;;;;;23.20;17.15;;;;;;;15.25;48.51;101132.19;5023171;28;20029;-59
2021/10/29 10:04:03;;;;;;;25.30;17.20;;;;;;;15.27;47.87;101121.25;5036178;28;20045;-54
2021/10/29 10:06:31;;;;;;;26.52;17.10;;;;;;;15.29;47.98;101119.59;5037409;28;20022;-56
2021/10/29 10:08:58;;;;;;;23.00;16.23;;;;;;;15.36;47.50;101121.59;5036211;28;20026;-57
2021/10/29 10:11:26;;;;;;;24.15;17.13;;;;;;;15.37;48.01;101109.03;5036651;28;20021;-57
2021/10/29 10:13:54;;;;;;;30.63;17.30;;;;;;;15.45;47.74;101100.03;5038395;28;20026;-57
2021/10/29 10:16:20;;;;;;;29.00;16.85;;;;;;;15.55;47.98;101106.81;5037329;28;20025;-58
2021/10/29 10:18:46;;;;;;;23.98;16.08;;;;;;;15.65;47.43;101108.78;5032743;28;20037;-56
2021/10/29 10:21:20;;;;;;;29.67;16.63;;;;;;;15.74;47.05;101103.44;5030057;28;20029;-58
2021/10/29 10:23:50;;;;;;;34.38;17.48;;;;;;;15.85;46.57;101097.63;5028324;28;20298;-58
2021/10/29 10:45:36;;;;;;;26.83;15.07;;;;;;;16.17;45.81;101080.25;5515275;22;20082;-51
2021/10/29 10:48:11;;;;;;;31.77;16.20;;;;;;;16.23;44.99;101072.09;5026216;28;20556;-57
2021/10/29 10:50:43;;;;;;;22.30;14.50;;;;;;;16.28;45.21;101066.72;5031382;28;20310;-59
2021/10/29 10:53:14;;;;;;;;;;;;;;;16.37;45.45;101069.03;5029016;28;20096;-58
2021/10/29 10:56:16;;;;;;;32.03;15.90;;;;;;;16.51;45.10;101060.34;5032476;28;19991;-56
2021/10/29 11:10:11;;;;;;;21.23;13.25;;;;;;;17.10;42.69;101042.00;4983616;28;20290;-58
2021/10/29 11:12:40;;;;;;;19.98;12.40;;;;;;;17.23;42.60;101045.81;4999797;28;20322;-53
2021/10/29 11:15:11;;;;;;;19.13;13.70;;;;;;;17.26;42.27;101042.94;5036464;28;20040;-59
2021/10/29 11:17:46;;;;;;;21.65;14.32;;;;;;;17.30;41.93;101031.50;5036813;28;20053;-57
2021/10/29 11:23:32;;;;;;;24.25;13.65;;;;;;;17.43;41.83;101029.63;5036588;28;20057;-59
2021/10/29 11:26:07;;;;;;;20.83;13.70;;;;;;;17.47;42.02;101018.97;4757168;28;20054;-58
2021/10/29 11:28:34;;;;;;;23.67;14.02;;;;;;;17.56;42.28;101022.06;5035978;28;20121;-58
2021/10/29 11:31:00;;;;;;;20.40;14.35;;;;;;;17.63;41.95;101012.59;5036363;28;20060;-51
2021/10/29 11:33:27;;;;;;;21.13;13.95;;;;;;;17.68;41.97;101008.47;5036678;28;20029;-56
2021/10/29 11:36:02;;;;;;;21.50;14.88;;;;;;;17.77;41.77;101003.00;5036145;28;20048;-53
2021/10/29 11:38:33;;;;;;;21.15;13.05;;;;;;;17.85;41.60;101010.16;5032622;28;20032;-57
2021/10/29 11:41:00;;;;;;;22.23;14.30;;;;;;;17.84;41.11;101003.66;5034663;28;20079;-58
2021/10/29 11:43:28;;;;;;;21.25;12.88;;;;;;;17.84;40.28;101002.88;5036488;28;20367;-54
2021/10/29 11:45:55;;;;;;;20.13;12.07;;;;;;;17.84;40.79;101005.72;5031287;28;20117;-54
2021/10/29 11:48:21;;;;;;;20.65;12.57;;;;;;;17.86;41.28;101004.03;5016353;28;20018;-53
2021/10/29 11:50:47;;;;;;;17.98;11.65;;;;;;;17.91;40.45;100997.81;5018610;28;20087;-56
2021/10/29 11:53:14;;;;;;;21.42;13.32;;;;;;;17.94;40.70;100993.28;5005366;28;20030;-57
2021/10/29 11:58:23;;;;;;;17.13;11.02;;;;;;;18.00;40.92;100996.41;5028475;28;20489;-55
2021/10/29 12:01:35;;;;;;;28.25;12.43;;;;;;;17.99;40.08;100987.09;5035559;28;20026;-55
2021/10/29 12:09:28;;;;;;;16.48;10.50;;;;;;;18.03;42.02;100978.47;5016221;28;20108;-56
2021/10/29 12:11:56;;;;;;;20.38;11.82;;;;;;;18.14;40.36;100988.38;5031826;28;20025;-56
2021/10/29 12:14:29;;;;;;;20.02;11.55;;;;;;;18.19;40.44;100987.06;5025662;28;20049;-56
2021/10/29 12:16:55;;;;;;;20.42;10.65;;;;;;;18.15;39.62;100984.31;5026291;28;20064;-52
2021/10/29 12:19:23;;;;;;;18.60;11.70;;;;;;;18.11;40.04;100972.22;5031119;28;20108;-57
2021/10/29 12:21:56;;;;;;;21.42;11.85;;;;;;;18.12;40.03;100973.00;5031163;28;20120;-58
2021/10/29 12:24:22;;;;;;;17.27;10.52;;;;;;;18.01;39.12;100967.53;5023933;28;20447;-56
2021/10/29 12:26:56;;;;;;;17.25;10.25;;;;;;;17.99;39.45;100974.91;5016594;28;20050;-57
2021/10/29 12:29:23;;;;;;;17.50;10.88;;;;;;;17.97;39.07;100961.13;5032223;28;20017;-55
2021/10/29 12:32:25;;;;;;;14.95;10.15;;;;;;;17.98;39.59;100967.63;5018914;28;20034;-52
2021/10/29 12:51:58;;;;;;;20.15;11.07;;;;;;;17.76;39.78;100933.94;5009954;28;20387;-58
2021/10/29 13:02:25;;;;;;;50.42;27.20;;;;;;;17.65;38.90;100915.50;5035085;28;20027;-58
2021/10/29 13:04:55;;;;;;;21.58;12.98;;;;;;;17.60;38.92;100925.34;5035060;28;20415;-59
2021/10/29 13:07:30;;;;;;;37.45;20.90;;;;;;;17.56;39.50;100922.59;5035023;28;20074;-58
2021/10/29 13:10:09;;;;;;;31.67;15.15;;;;;;;17.58;39.90;100914.44;5034886;28;20112;-59
2021/10/29 13:12:46;;;;;;;18.48;11.90;;;;;;;17.60;38.73;100925.34;5035368;28;20028;-59
2021/10/29 13:15:14;;;;;;;36.53;17.30;;;;;;;17.59;38.97;100923.75;5035190;28;20108;-59
2021/10/29 13:17:49;;;;;;;63.08;31.83;;;;;;;17.60;39.24;100920.47;5029347;28;20040;-59
2021/10/29 13:23:43;;;;;;;42.78;26.95;;;;;;;17.57;39.54;100921.34;4993335;28;20050;-59
2021/10/29 13:26:31;;;;;;;17.17;11.18;;;;;;;17.58;39.20;100922.16;5034605;28;20048;-58
2021/10/29 13:55:30;;;;;;;21.88;12.15;;;;;;;17.23;39.11;100887.53;5038526;28;20027;-56
2021/10/29 13:58:12;;;;;;;19.13;12.70;;;;;;;17.21;39.75;100880.69;5038253;28;20401;-59
2021/10/29 14:01:06;;;;;;;17.52;12.27;;;;;;;17.20;39.47;100881.91;5038261;28;20029;-59
2021/10/29 14:32:55;;;;;;;15.38;10.23;;;;;;;16.84;40.64;100874.09;5038145;28;20025;-59
2021/10/29 14:40:50;;;;;;;18.55;10.20;;;;;;;16.77;40.47;100873.44;5030847;28;20029;-58
2021/10/29 14:43:24;;;;;;;17.30;9.98;;;;;;;16.74;41.43;100872.28;5030984;28;20075;-59
2021/10/29 15:04:36;;;;;;;15.32;9.50;;;;;;;16.29;42.23;100855.59;5037192;28;20022;-58